Time;durP1;ratioP1;P1;durP2;ratioP2;P2;SDS_P1;SDS_P2;PMS_P1;PMS_P2;Temp;Humidity;BMP_temperature;BMP_pressure;BME280_temperature;BME280_humidity;BME280_pressure;Samples;Min_cycle;Max_cycle;Signal;HPM_P1;HPM_P2
2022/03/03 00:01:43;;;;;;;415.00;60.03;;;;;;;-5.62;74.89;100094.44;4961150;28;20049;-85
2022/03/03 00:04:09;;;;;;;498.00;65.72;;;;;;;-5.73;75.10;100088.38;4993926;28;20073;-86
2022/03/03 00:06:36;;;;;;;542.88;62.75;;;;;;;-5.74;75.07;100091.88;4976364;28;20124;-86
2022/03/03 00:09:05;;;;;;;504.48;60.58;;;;;;;-5.73;74.84;100085.78;4976658;28;20046;-87
2022/03/03 00:11:31;;;;;;;403.90;59.85;;;;;;;-5.68;74.69;100088.38;4960805;28;20502;-85
2022/03/03 00:13:57;;;;;;;400.48;58.53;;;;;;;-5.67;74.68;100085.78;4960498;28;20070;-86
2022/03/03 00:16:24;;;;;;;381.02;58.47;;;;;;;-5.73;74.52;100077.09;4976713;28;20116;-86
2022/03/03 00:18:50;;;;;;;375.08;59.30;;;;;;;-5.70;74.68;100080.56;4976411;28;20085;-86
2022/03/03 00:21:16;;;;;;;336.02;60.20;;;;;;;-5.67;74.77;100080.56;4976524;28;20066;-86
2022/03/03 00:23:42;;;;;;;452.80;60.15;;;;;;;-5.69;74.75;100084.03;4960273;28;20050;-85
2022/03/03 00:26:08;;;;;;;392.33;57.90;;;;;;;-5.68;74.64;100081.44;4993780;28;20049;-85
2022/03/03 00:28:35;;;;;;;387.10;55.15;;;;;;;-5.63;74.45;100074.47;4994230;28;20078;-85
2022/03/03 00:31:00;;;;;;;321.98;56.15;;;;;;;-5.66;74.31;100069.28;4994649;28;20042;-86
2022/03/03 00:33:26;;;;;;;351.55;58.65;;;;;;;-5.59;74.30;100067.53;4961311;28;20054;-85
2022/03/03 00:35:52;;;;;;;363.67;56.45;;;;;;;-5.64;74.10;100067.53;4976977;28;20141;-87
2022/03/03 00:38:18;;;;;;;307.52;54.50;;;;;;;-5.68;73.70;100060.59;4992847;28;20490;-85
2022/03/03 00:40:44;;;;;;;328.00;55.38;;;;;;;-5.65;73.70;100060.56;4992559;28;20097;-85
2022/03/03 00:43:10;;;;;;;315.25;52.80;;;;;;;-5.67;73.76;100058.88;4993250;28;20405;-84
2022/03/03 00:45:37;;;;;;;392.90;54.20;;;;;;;-5.80;73.46;100050.19;4994623;28;20072;-86
2022/03/03 00:48:04;;;;;;;351.50;56.35;;;;;;;-5.78;73.18;100058.88;4976831;28;20446;-87
2022/03/03 00:50:30;;;;;;;325.38;55.00;;;;;;;-5.79;73.12;100056.28;4993894;28;20089;-86
2022/03/03 00:52:56;;;;;;;351.25;54.05;;;;;;;-5.86;73.64;100056.31;4976486;28;20046;-84
2022/03/03 00:55:22;;;;;;;283.83;51.17;;;;;;;-5.84;73.20;100051.09;4976903;28;20050;-84
2022/03/03 00:57:48;;;;;;;344.65;55.25;;;;;;;-5.85;73.12;100051.97;4978796;28;20092;-85
2022/03/03 01:00:14;;;;;;;363.27;57.10;;;;;;;-5.96;72.73;100040.75;4997788;28;20141;-86
2022/03/03 01:02:40;;;;;;;361.48;51.65;;;;;;;-6.03;73.09;100036.41;4986114;28;20042;-84
2022/03/03 01:05:07;;;;;;;300.48;54.15;;;;;;;-6.02;73.12;100054.63;5016595;28;20039;-85
2022/03/03 01:07:34;;;;;;;373.52;53.65;;;;;;;-6.06;73.11;100046.81;4978304;28;20524;-84
2022/03/03 01:10:00;;;;;;;298.67;55.85;;;;;;;-6.14;73.46;100039.88;4993934;28;20041;-83
2022/03/03 01:12:26;;;;;;;329.77;52.97;;;;;;;-6.09;73.24;100042.50;4991246;28;20494;-85
2022/03/03 01:14:51;;;;;;;450.65;58.72;;;;;;;-6.19;73.26;100026.03;4999267;28;20070;-85
2022/03/03 01:17:17;;;;;;;359.77;56.05;;;;;;;-6.17;73.07;100036.41;4998473;28;20057;-84
2022/03/03 01:19:43;;;;;;;317.35;56.13;;;;;;;-6.21;73.32;100047.69;4980133;28;20054;-84
2022/03/03 01:22:09;;;;;;;223.48;53.70;;;;;;;-6.21;73.24;100038.16;4997587;28;20093;-84
2022/03/03 01:24:36;;;;;;;321.27;53.45;;;;;;;-6.19;73.30;100043.38;4997646;28;20066;-82
2022/03/03 01:27:03;;;;;;;339.17;54.22;;;;;;;-6.20;73.30;100039.91;4997438;28;20038;-85
2022/03/03 01:29:29;;;;;;;315.38;55.78;;;;;;;-6.33;73.15;100032.97;4980481;28;20370;-84
2022/03/03 01:31:55;;;;;;;413.85;59.38;;;;;;;-6.25;73.33;100040.78;4997040;28;20034;-85
2022/03/03 01:34:20;;;;;;;337.42;57.53;;;;;;;-6.22;73.42;100045.97;4996021;28;20050;-85
2022/03/03 01:36:46;;;;;;;297.05;55.17;;;;;;;-6.21;73.24;100039.91;4996010;28;20073;-85
2022/03/03 01:39:13;;;;;;;259.27;53.92;;;;;;;-6.16;73.38;100041.66;4979886;28;20049;-84
2022/03/03 01:41:41;;;;;;;250.20;53.80;;;;;;;-6.14;73.41;100039.88;4970723;28;20176;-85
2022/03/03 01:44:08;;;;;;;292.05;53.80;;;;;;;-6.18;73.01;100045.09;4960091;28;20414;-86
2022/03/03 01:46:34;;;;;;;242.38;54.78;;;;;;;-6.20;73.09;100045.13;4944156;28;20581;-86
2022/03/03 01:49:00;;;;;;;268.55;55.05;;;;;;;-6.19;72.84;100046.84;4976046;28;20054;-85
2022/03/03 01:51:27;;;;;;;265.00;52.63;;;;;;;-6.28;72.62;100045.97;4976124;28;20189;-84
2022/03/03 01:53:53;;;;;;;340.60;55.17;;;;;;;-6.45;72.70;100027.78;4960019;28;20043;-84
2022/03/03 01:56:19;;;;;;;382.20;57.78;;;;;;;-6.52;72.72;100032.13;4977250;28;20083;-85
2022/03/03 01:58:46;;;;;;;458.70;58.05;;;;;;;-6.66;72.88;100026.91;4959917;28;20402;-87
2022/03/03 02:01:15;;;;;;;442.13;60.30;;;;;;;-6.67;72.98;100025.19;4960495;28;20047;-87
2022/03/03 02:03:41;;;;;;;299.10;57.33;;;;;;;-6.63;73.04;100028.66;4977948;28;20050;-86
2022/03/03 02:06:06;;;;;;;272.38;56.55;;;;;;;-6.78;73.06;100019.09;4962132;28;20053;-86
2022/03/03 02:08:32;;;;;;;332.77;59.75;;;;;;;-6.72;73.14;100019.13;4964091;28;20050;-85
2022/03/03 02:10:58;;;;;;;278.20;56.75;;;;;;;-6.71;73.48;100015.66;4946586;28;20074;-86
2022/03/03 02:13:24;;;;;;;214.07;54.15;;;;;;;-6.61;73.68;100012.19;4980363;28;20070;-85
2022/03/03 02:15:54;;;;;;;206.60;51.28;;;;;;;-6.51;73.02;100012.19;4961481;28;20415;-85
2022/03/03 02:18:20;;;;;;;227.38;51.80;;;;;;;-6.48;72.73;100006.97;4960287;28;20038;-90
2022/03/03 02:20:47;;;;;;;235.35;52.83;;;;;;;-6.52;72.34;100000.03;4946084;28;20043;-86
2022/03/03 02:23:14;;;;;;;238.52;53.70;;;;;;;-6.49;72.48;100003.50;4966640;28;20058;-86
2022/03/03 02:25:40;;;;;;;224.10;52.83;;;;;;;-6.53;72.43;99999.19;4973537;28;20046;-87
2022/03/03 02:28:06;;;;;;;223.20;53.25;;;;;;;-6.50;72.33;100001.78;4973260;28;20135;-88
2022/03/03 02:30:32;;;;;;;219.57;53.58;;;;;;;-6.55;72.56;99998.31;4971880;28;20046;-84
2022/03/03 02:32:58;;;;;;;211.05;51.92;;;;;;;-6.53;72.53;100011.31;4968325;28;20047;-85
2022/03/03 02:35:24;;;;;;;217.18;56.90;;;;;;;-6.60;72.38;100006.13;4962450;28;20058;-85
2022/03/03 02:37:50;;;;;;;219.02;53.15;;;;;;;-6.55;72.49;100005.25;4977316;28;20076;-88
2022/03/03 02:40:21;;;;;;;231.45;53.30;;;;;;;-6.47;72.40;99998.28;4927956;28;20153;-87
2022/03/03 02:42:52;;;;;;;226.18;52.53;;;;;;;-6.48;72.63;99987.03;4959773;28;20043;-86
2022/03/03 02:45:18;;;;;;;200.60;51.05;;;;;;;-6.36;72.37;99983.53;4943519;28;20049;-84
2022/03/03 02:47:46;;;;;;;222.80;51.97;;;;;;;-6.38;71.84;99975.75;4959165;28;20161;-83
2022/03/03 02:50:13;;;;;;;193.10;50.00;;;;;;;-6.36;72.11;99979.25;4942998;28;20077;-84
2022/03/03 02:52:40;;;;;;;198.10;48.70;;;;;;;-6.29;71.73;99977.47;4959445;28;20050;-84
2022/03/03 02:55:07;;;;;;;202.48;45.85;;;;;;;-6.29;71.55;99974.88;4959213;28;20065;-87
2022/03/03 03:00:17;;;;;;;192.68;46.85;;;;;;;-6.34;71.27;99962.75;4959156;28;20050;-85
2022/03/03 03:02:43;;;;;;;213.95;48.92;;;;;;;-6.32;71.40;99966.19;4976295;28;20422;-86
2022/03/03 03:05:10;;;;;;;192.13;48.03;;;;;;;-6.31;71.18;99973.16;4976038;28;20050;-85
2022/03/03 03:07:36;;;;;;;187.48;46.17;;;;;;;-6.29;71.28;99980.06;4976175;28;20053;-87
2022/03/03 03:10:03;;;;;;;188.95;46.33;;;;;;;-6.27;71.31;99967.06;4958644;28;20042;-86
2022/03/03 03:12:29;;;;;;;174.38;44.95;;;;;;;-6.21;71.37;99975.72;4958588;28;20054;-85
2022/03/03 03:14:56;;;;;;;169.52;43.72;;;;;;;-6.18;70.72;99974.84;4975987;28;20380;-84
2022/03/03 03:17:22;;;;;;;165.35;42.92;;;;;;;-6.19;70.61;99966.19;4975819;28;20089;-85
2022/03/03 03:19:48;;;;;;;168.82;41.33;;;;;;;-6.24;70.78;99959.25;4976055;28;20043;-85
2022/03/03 03:22:14;;;;;;;163.93;42.33;;;;;;;-6.20;70.91;99972.25;4976648;28;20138;-83
2022/03/03 03:24:39;;;;;;;166.88;40.72;;;;;;;-6.27;70.44;99946.25;4975754;28;20129;-84
2022/03/03 03:27:06;;;;;;;189.57;43.75;;;;;;;-6.30;70.47;99964.47;4957203;28;20081;-82
2022/03/03 03:29:32;;;;;;;172.15;42.55;;;;;;;-6.26;70.62;99966.19;4975179;28;20568;-83
2022/03/03 03:31:59;;;;;;;195.15;43.92;;;;;;;-6.25;70.81;99950.56;4958099;28;20074;-83
2022/03/03 03:34:25;;;;;;;168.40;44.65;;;;;;;-6.23;70.92;99954.06;4974552;28;20046;-83
2022/03/03 03:36:50;;;;;;;188.63;44.33;;;;;;;-6.18;70.36;99949.69;4976011;28;20046;-85
2022/03/03 03:39:16;;;;;;;201.38;44.63;;;;;;;-6.19;70.23;99945.38;4958476;28;20054;-85
2022/03/03 03:41:43;;;;;;;173.32;42.70;;;;;;;-6.18;70.30;99951.44;4974541;28;20116;-82
2022/03/03 03:44:10;;;;;;;187.10;45.00;;;;;;;-6.16;70.61;99941.91;4974681;28;20137;-84
2022/03/03 03:46:37;;;;;;;194.88;47.00;;;;;;;-6.13;70.42;99952.28;4927677;28;20401;-83
2022/03/03 03:49:05;;;;;;;169.38;43.83;;;;;;;-6.12;70.53;99951.44;4966900;28;20038;-85
2022/03/03 03:51:32;;;;;;;203.48;44.58;;;;;;;-6.07;70.26;99946.19;4939024;28;20059;-87
2022/03/03 03:53:58;;;;;;;167.13;44.75;;;;;;;-5.96;70.50;99934.03;4946829;28;20042;-85
2022/03/03 03:56:24;;;;;;;192.32;44.80;;;;;;;-5.80;70.34;99933.03;4980236;28;20034;-85
2022/03/03 03:58:50;;;;;;;181.93;45.78;;;;;;;-5.72;69.81;99933.88;4979330;28;20578;-80
2022/03/03 04:01:17;;;;;;;175.98;43.78;;;;;;;-5.59;69.62;99931.22;5001546;28;20057;-84
2022/03/03 04:03:42;;;;;;;184.88;43.47;;;;;;;-5.53;69.16;99933.78;4996724;28;20100;-84
2022/03/03 04:06:09;;;;;;;196.93;48.20;;;;;;;-5.55;69.30;99918.16;4998872;28;20077;-86
2022/03/03 04:08:35;;;;;;;176.45;45.38;;;;;;;-5.57;68.68;99932.06;4979874;28;20039;-90
2022/03/03 04:11:02;;;;;;;174.68;45.58;;;;;;;-5.56;68.80;99916.44;4962841;28;20061;-83
2022/03/03 04:13:28;;;;;;;207.77;47.47;;;;;;;-5.52;68.69;99904.28;4976848;28;20406;-86
2022/03/03 04:15:54;;;;;;;203.07;49.13;;;;;;;-5.43;68.34;99904.19;4973850;28;20121;-81
2022/03/03 04:18:20;;;;;;;211.13;48.40;;;;;;;-5.34;68.32;99903.25;4974645;28;20043;-80
2022/03/03 04:20:46;;;;;;;207.13;51.03;;;;;;;-5.44;68.30;99886.84;4958132;28;20051;-89
2022/03/03 04:23:12;;;;;;;195.30;46.28;;;;;;;-5.31;68.25;99878.06;4957883;28;20061;-79
2022/03/03 04:25:38;;;;;;;200.43;47.22;;;;;;;-5.14;68.23;99888.38;4973692;28;20047;-88
2022/03/03 04:28:04;;;;;;;209.50;49.15;;;;;;;-5.06;68.04;99890.91;4974709;28;20042;-85
2022/03/03 04:30:30;;;;;;;211.40;48.85;;;;;;;-4.98;67.85;99894.31;4973215;28;20078;-86
2022/03/03 04:32:56;;;;;;;188.52;45.50;;;;;;;-4.88;67.99;99888.16;4958400;28;20043;-80
2022/03/03 04:35:22;;;;;;;162.88;47.00;;;;;;;-4.86;67.15;99891.59;4957330;28;20379;-81
2022/03/03 04:37:48;;;;;;;190.65;47.05;;;;;;;-4.94;67.38;99888.19;4978839;28;20109;-84
2022/03/03 04:40:14;;;;;;;182.75;46.95;;;;;;;-4.83;67.57;99881.16;4980136;28;20510;-79
2022/03/03 04:42:40;;;;;;;200.60;52.40;;;;;;;-4.56;67.85;99880.00;4966016;28;20170;-86
2022/03/03 04:45:07;;;;;;;187.50;52.83;;;;;;;-4.43;67.27;99883.38;4969713;28;20160;-83
2022/03/03 04:47:33;;;;;;;187.20;49.80;;;;;;;-4.32;67.24;99884.13;4992210;28;20076;-83
2022/03/03 04:49:58;;;;;;;206.13;55.28;;;;;;;-4.25;66.89;99885.78;4985403;28;20118;-85
2022/03/03 04:52:24;;;;;;;201.85;58.45;;;;;;;-4.24;65.87;99877.06;4992188;28;20061;-82
2022/03/03 04:54:50;;;;;;;206.55;58.30;;;;;;;-4.22;65.59;99883.13;4980315;28;20039;-82
2022/03/03 04:57:17;;;;;;;212.45;60.92;;;;;;;-4.15;65.48;99871.72;4961010;28;20548;-77
2022/03/03 04:59:43;;;;;;;214.05;62.50;;;;;;;-3.97;65.32;99869.78;4959568;28;20521;-84
2022/03/03 05:02:09;;;;;;;220.70;65.85;;;;;;;-3.84;65.29;99863.50;4950516;28;20058;-81
2022/03/03 05:04:35;;;;;;;233.23;66.05;;;;;;;-3.71;64.59;99852.00;4975562;28;20486;-82
2022/03/03 05:07:01;;;;;;;233.27;69.97;;;;;;;-3.65;64.60;99837.97;4972896;28;20054;-83
2022/03/03 05:09:27;;;;;;;223.02;72.85;;;;;;;-3.55;64.07;99851.78;4927034;28;20161;-81
2022/03/03 05:11:53;;;;;;;215.18;71.28;;;;;;;-3.47;64.16;99839.47;4966152;28;20122;-82
2022/03/03 05:14:20;;;;;;;216.70;71.47;;;;;;;-3.35;63.66;99833.19;4966802;28;20078;-80
2022/03/03 05:16:45;;;;;;;213.25;72.57;;;;;;;-3.36;63.25;99824.47;4974600;28;20043;-82
2022/03/03 05:19:11;;;;;;;221.70;74.22;;;;;;;-3.23;63.28;99839.09;4973476;28;20042;-82
2022/03/03 05:21:37;;;;;;;208.27;71.40;;;;;;;-3.13;62.99;99839.78;4972521;28;20043;-80
2022/03/03 05:24:04;;;;;;;212.48;71.90;;;;;;;-2.92;63.02;99835.09;4940484;28;20097;-80
2022/03/03 05:26:29;;;;;;;239.68;78.65;;;;;;;-2.81;62.44;99834.03;4957167;28;20046;-83
2022/03/03 05:28:55;;;;;;;243.45;78.88;;;;;;;-2.72;62.34;99820.75;4972355;28;20053;-85
2022/03/03 05:31:21;;;;;;;255.63;82.85;;;;;;;-2.50;62.12;99830.84;4955923;28;20051;-86
2022/03/03 05:33:47;;;;;;;273.20;82.65;;;;;;;-2.39;61.32;99828.00;4956022;28;20043;-85
2022/03/03 05:36:13;;;;;;;236.95;77.18;;;;;;;-2.35;61.02;99827.91;4970988;28;20399;-85
2022/03/03 05:38:40;;;;;;;231.27;75.07;;;;;;;-2.32;60.49;99830.47;4956240;28;20050;-80
2022/03/03 05:41:06;;;;;;;236.65;76.35;;;;;;;-2.27;60.27;99823.38;4972250;28;20126;-80
2022/03/03 05:43:33;;;;;;;232.75;75.75;;;;;;;-2.22;60.23;99818.94;4955628;28;20057;-81
2022/03/03 05:46:00;;;;;;;227.02;74.00;;;;;;;-2.16;60.19;99803.97;4955565;28;20043;-82
2022/03/03 05:48:26;;;;;;;203.00;72.18;;;;;;;-2.15;59.82;99796.06;4939666;28;20054;-79
2022/03/03 05:50:53;;;;;;;234.93;72.38;;;;;;;-2.16;59.65;99799.59;4975564;28;20074;-79
2022/03/03 05:53:19;;;;;;;226.40;74.40;;;;;;;-2.19;59.40;99794.41;4960057;28;20517;-81
2022/03/03 05:55:49;;;;;;;224.20;77.80;;;;;;;-2.29;59.44;99785.91;4975592;28;20512;-81
2022/03/03 05:58:17;;;;;;;237.70;75.32;;;;;;;-2.27;59.90;99793.72;4959498;28;20138;-81
2022/03/03 06:00:45;;;;;;;209.93;71.07;;;;;;;-2.28;59.65;99784.16;4976619;28;20043;-79
2022/03/03 06:03:16;;;;;;;215.57;71.20;;;;;;;-2.14;59.93;99786.47;4959283;28;20047;-80
2022/03/03 06:05:49;;;;;;;213.15;74.93;;;;;;;-1.93;59.59;99796.47;4958736;28;20443;-83
2022/03/03 06:08:17;;;;;;;215.07;73.15;;;;;;;-1.84;59.93;99775.34;4974965;28;20083;-80
2022/03/03 06:10:51;;;;;;;215.53;70.73;;;;;;;-1.53;58.81;99792.97;4942832;28;20066;-83
2022/03/03 06:13:20;;;;;;;208.13;68.57;;;;;;;-1.42;58.00;99803.19;4927084;28;20046;-82
2022/03/03 06:15:51;;;;;;;207.35;68.10;;;;;;;-1.39;57.17;99793.50;4976073;28;20050;-76
2022/03/03 06:18:20;;;;;;;220.35;75.07;;;;;;;-1.38;57.89;99786.50;4959508;28;20046;-86
2022/03/03 06:20:46;;;;;;;216.95;73.95;;;;;;;-1.26;57.26;99792.28;4967343;28;20038;-81
2022/03/03 06:23:13;;;;;;;245.38;82.03;;;;;;;-1.25;56.83;99791.38;4972726;28;20050;-81
2022/03/03 06:25:38;;;;;;;220.57;74.85;;;;;;;-1.13;57.11;99782.38;4954228;28;20053;-87
2022/03/03 06:28:05;;;;;;;211.73;76.88;;;;;;;-1.02;57.16;99792.56;4996138;28;20038;-84
2022/03/03 06:30:32;;;;;;;236.07;83.05;;;;;;;-0.92;56.63;99788.81;4995870;28;20167;-83
2022/03/03 06:32:58;;;;;;;248.82;85.50;;;;;;;-0.91;57.00;99779.16;4978777;28;20553;-85
2022/03/03 06:35:24;;;;;;;224.85;80.20;;;;;;;-0.85;56.80;99779.03;4978506;28;20124;-88
2022/03/03 06:37:50;;;;;;;203.57;74.95;;;;;;;-0.66;56.53;99782.00;4979338;28;20045;-80
2022/03/03 06:40:16;;;;;;;221.13;78.78;;;;;;;-0.50;56.16;99775.41;4995354;28;20413;-79
2022/03/03 06:42:42;;;;;;;205.15;70.75;;;;;;;-0.48;55.68;99768.38;4978346;28;20457;-87
2022/03/03 06:45:08;;;;;;;165.60;59.05;;;;;;;-0.51;55.37;99764.06;4961833;28;20046;-79
2022/03/03 06:47:34;;;;;;;140.13;48.90;;;;;;;-0.41;55.98;99764.66;4945843;28;20042;-83
2022/03/03 06:50:00;;;;;;;134.70;47.80;;;;;;;-0.25;55.16;99762.47;4994320;28;20061;-83
2022/03/03 06:52:33;;;;;;;124.95;47.10;;;;;;;-0.03;54.57;99758.28;4978349;28;20395;-90
2022/03/03 06:54:59;;;;;;;124.72;44.25;;;;;;;-0.04;53.93;99760.94;4945798;28;20052;-81
2022/03/03 06:57:27;;;;;;;98.60;38.50;;;;;;;-0.03;53.62;99745.16;4994688;28;20049;-81
2022/03/03 06:59:59;;;;;;;81.32;34.50;;;;;;;-0.14;53.81;99756.88;4977297;28;20046;-81
2022/03/03 07:02:26;;;;;;;87.95;35.30;;;;;;;0.04;54.12;99751.09;4995293;28;20085;-78
2022/03/03 07:04:54;;;;;;;94.38;35.42;;;;;;;0.10;53.06;99740.34;4976914;28;20038;-79
2022/03/03 07:07:21;;;;;;;89.00;36.30;;;;;;;0.09;53.16;99749.16;4994643;28;20421;-84
2022/03/03 07:09:47;;;;;;;93.13;34.60;;;;;;;0.13;53.23;99736.78;4961071;28;20042;-90
2022/03/03 07:12:16;;;;;;;90.05;36.70;;;;;;;0.30;53.99;99731.88;4961195;28;20054;-82
2022/03/03 07:14:41;;;;;;;79.60;33.95;;;;;;;0.35;53.02;99736.97;4994844;28;20053;-83
2022/03/03 07:17:37;;;;;;;103.70;39.88;;;;;;;0.52;54.01;99729.38;4961072;28;20039;-84
2022/03/03 07:20:06;;;;;;;73.63;31.05;;;;;;;0.72;53.22;99734.84;4975449;28;20066;-84
2022/03/03 07:22:39;;;;;;;84.82;32.97;;;;;;;0.68;51.85;99737.66;4956670;28;20042;-79
2022/03/03 07:25:14;;;;;;;77.90;33.72;;;;;;;0.84;52.24;99727.47;4957997;28;20074;-79
2022/03/03 07:27:45;;;;;;;80.97;33.97;;;;;;;1.22;52.22;99739.28;4977108;28;20038;-84
2022/03/03 07:30:15;;;;;;;89.72;34.60;;;;;;;1.42;51.57;99725.38;4958613;28;20054;-89
2022/03/03 07:32:53;;;;;;;98.25;36.40;;;;;;;1.47;50.84;99723.47;4976866;28;20576;-83
2022/03/03 07:35:22;;;;;;;100.03;38.65;;;;;;;1.31;51.41;99722.28;4957550;28;20045;-80
2022/03/03 07:37:58;;;;;;;88.10;35.80;;;;;;;1.38;51.93;99723.78;4958751;28;20043;-85
2022/03/03 07:40:27;;;;;;;85.57;35.53;;;;;;;1.66;52.25;99731.53;4976724;28;20059;-85
2022/03/03 07:42:55;;;;;;;82.97;33.28;;;;;;;1.54;50.02;99719.66;4975665;28;20085;-81
2022/03/03 07:45:21;;;;;;;93.72;37.22;;;;;;;1.69;50.27;99708.56;4959665;28;20038;-84
2022/03/03 07:47:54;;;;;;;93.45;36.58;;;;;;;1.75;49.74;99707.47;4943993;28;20486;-86
2022/03/03 07:50:21;;;;;;;84.40;35.17;;;;;;;1.67;49.70;99704.25;4942382;28;20050;-84
2022/03/03 07:52:52;;;;;;;94.55;35.60;;;;;;;1.77;48.68;99704.75;4975208;28;20069;-83
2022/03/03 07:55:18;;;;;;;92.25;35.35;;;;;;;1.68;49.01;99701.56;4974267;28;20057;-81
2022/03/03 07:57:53;;;;;;;90.68;32.90;;;;;;;1.58;48.97;99694.94;4982941;28;20073;-82
2022/03/03 08:00:19;;;;;;;95.80;31.23;;;;;;;1.34;50.07;99698.47;4972533;28;20058;-80
2022/03/03 08:02:50;;;;;;;69.13;28.58;;;;;;;1.37;49.99;99693.09;4981750;28;20042;-83
2022/03/03 08:05:16;;;;;;;72.50;29.17;;;;;;;1.16;49.75;99692.94;4972936;28;20540;-84
2022/03/03 08:07:46;;;;;;;73.25;29.20;;;;;;;1.18;50.06;99693.75;4971738;28;20142;-84
2022/03/03 08:10:15;;;;;;;68.95;27.95;;;;;;;1.08;50.73;99695.00;4962531;28;20506;-84
2022/03/03 08:12:42;;;;;;;72.85;29.02;;;;;;;1.07;50.63;99682.75;4949182;28;20068;-84
2022/03/03 08:15:11;;;;;;;70.63;28.27;;;;;;;1.24;50.42;99687.41;4968038;28;20046;-81
2022/03/03 08:17:37;;;;;;;69.28;30.42;;;;;;;1.46;49.32;99692.75;4949633;28;20496;-82
2022/03/03 08:20:07;;;;;;;82.38;31.45;;;;;;;1.80;49.50;99680.91;4980884;28;20224;-84
2022/03/03 08:22:33;;;;;;;;;;;;;;;2.03;48.94;99686.19;4951214;28;20485;-83
2022/03/03 08:24:59;;;;;;;65.82;28.17;;;;;;;1.91;48.67;99692.75;4949668;28;20381;-87
2022/03/03 08:27:27;;;;;;;58.30;25.20;;;;;;;1.87;48.90;99685.03;4964399;28;20074;-87
2022/03/03 08:29:54;;;;;;;66.88;25.83;;;;;;;1.67;48.36;99678.75;4941020;28;20089;-82
2022/03/03 08:32:23;;;;;;;70.03;27.55;;;;;;;1.66;49.70;99682.31;4959886;28;20501;-84
2022/03/03 08:35:12;;;;;;;56.55;25.50;;;;;;;1.92;49.23;99675.19;4975267;28;20084;-81
2022/03/03 08:37:42;;;;;;;52.85;22.77;;;;;;;1.96;48.34;99674.16;4989485;28;20517;-79
2022/03/03 08:40:10;;;;;;;57.22;24.40;;;;;;;1.98;49.14;99667.03;4982547;28;20050;-88
2022/03/03 08:42:42;;;;;;;44.42;20.33;;;;;;;2.04;48.16;99661.50;4980542;28;20045;-84
2022/03/03 08:45:10;;;;;;;47.45;22.55;;;;;;;2.13;48.35;99662.91;4995819;28;20046;-85
2022/03/03 08:47:37;;;;;;;49.75;23.30;;;;;;;2.43;48.36;99655.53;4987490;28;20038;-85
2022/03/03 08:50:08;;;;;;;46.08;21.77;;;;;;;2.35;48.56;99655.00;4986035;28;20066;-81
2022/03/03 08:52:38;;;;;;;57.25;22.35;;;;;;;2.21;48.05;99649.41;4998390;28;20034;-86
2022/03/03 08:55:06;;;;;;;52.78;22.58;;;;;;;2.09;48.83;99659.53;4962698;28;20081;-85
2022/03/03 08:57:32;;;;;;;45.75;21.65;;;;;;;2.42;48.91;99653.81;4978225;28;20125;-84
2022/03/03 08:59:58;;;;;;;42.05;20.40;;;;;;;2.46;48.39;99662.47;4977304;28;20134;-81
2022/03/03 09:02:24;;;;;;;47.28;21.75;;;;;;;2.57;48.53;99650.53;4990631;28;20561;-82
2022/03/03 09:04:50;;;;;;;41.75;21.60;;;;;;;2.64;48.08;99652.00;4973470;28;20106;-79
2022/03/03 09:07:16;;;;;;;44.47;19.45;;;;;;;2.86;48.38;99635.22;4966368;28;20042;-85
2022/03/03 09:09:42;;;;;;;36.80;20.73;;;;;;;3.21;48.31;99640.72;4959691;28;20046;-89
2022/03/03 09:12:08;;;;;;;45.58;20.17;;;;;;;3.15;47.16;99637.41;4975387;28;20149;-85
2022/03/03 09:14:35;;;;;;;40.45;20.08;;;;;;;3.33;47.33;99634.88;4947411;28;20050;-88
2022/03/03 09:17:01;;;;;;;41.30;20.38;;;;;;;3.35;47.02;99631.25;4971991;28;20100;-84
2022/03/03 09:19:27;;;;;;;41.10;20.60;;;;;;;3.22;47.16;99616.00;4940513;28;20078;-85
2022/03/03 09:21:53;;;;;;;42.85;20.63;;;;;;;3.26;47.52;99626.34;4956839;28;20070;-86
2022/03/03 09:24:19;;;;;;;41.53;20.88;;;;;;;3.15;48.06;99626.00;4976155;28;20047;-85
2022/03/03 09:26:45;;;;;;;48.13;21.85;;;;;;;3.24;47.52;99624.75;4977661;28;20130;-83
2022/03/03 09:29:11;;;;;;;44.40;20.90;;;;;;;3.33;47.57;99624.31;4964449;28;20039;-84
2022/03/03 09:31:36;;;;;;;39.33;20.90;;;;;;;3.42;47.48;99613.28;4996692;28;20053;-84
2022/03/03 09:34:02;;;;;;;41.67;21.55;;;;;;;3.64;46.96;99614.00;4963862;28;20038;-83
2022/03/03 09:36:29;;;;;;;42.72;20.80;;;;;;;3.69;46.76;99615.59;4997104;28;20054;-84
2022/03/03 09:38:55;;;;;;;41.88;21.05;;;;;;;3.47;45.95;99606.03;4996783;28;20129;-85
2022/03/03 09:41:21;;;;;;;48.22;19.92;;;;;;;3.23;46.63;99607.16;4979448;28;20165;-85
2022/03/03 09:43:47;;;;;;;42.70;20.83;;;;;;;3.12;47.14;99605.00;4975230;28;20043;-86
2022/03/03 09:46:13;;;;;;;41.92;21.20;;;;;;;3.38;47.08;99606.44;4990325;28;20053;-84
2022/03/03 09:48:39;;;;;;;45.42;21.35;;;;;;;3.35;46.88;99601.31;4979078;28;20058;-85
2022/03/03 09:51:05;;;;;;;41.42;20.55;;;;;;;3.51;46.91;99612.88;4963207;28;20058;-85
2022/03/03 09:53:32;;;;;;;40.38;19.60;;;;;;;3.47;46.53;99619.25;4965686;28;20521;-85
2022/03/03 09:55:59;;;;;;;36.40;18.33;;;;;;;2.97;47.01;99605.69;4979692;28;20485;-84
2022/03/03 09:58:25;;;;;;;35.22;17.05;;;;;;;3.10;47.19;99605.06;4978958;28;20073;-84
2022/03/03 10:00:51;;;;;;;36.28;18.08;;;;;;;3.16;46.80;99612.72;4995084;28;20122;-84
2022/03/03 10:03:18;;;;;;;37.88;18.80;;;;;;;3.32;46.98;99596.19;4963197;28;20078;-87
2022/03/03 10:05:49;;;;;;;36.50;17.27;;;;;;;3.41;46.79;99601.03;4962648;28;20046;-86
2022/03/03 10:08:19;;;;;;;38.25;16.80;;;;;;;3.48;46.74;99598.97;4996121;28;20505;-84
2022/03/03 10:10:54;;;;;;;39.08;17.52;;;;;;;2.98;47.44;99603.00;4995147;28;20152;-84
2022/03/03 10:13:20;;;;;;;47.25;19.38;;;;;;;2.49;48.67;99594.59;4978594;28;20057;-84
2022/03/03 10:15:57;;;;;;;55.67;20.73;;;;;;;3.04;48.91;99588.63;4994910;28;20129;-83
2022/03/03 10:18:24;;;;;;;40.28;19.27;;;;;;;3.31;48.33;99578.59;4978614;28;20050;-84
2022/03/03 10:20:56;;;;;;;35.42;18.17;;;;;;;3.48;48.29;99573.38;4962512;28;20065;-82
2022/03/03 10:23:36;;;;;;;44.20;19.25;;;;;;;3.47;48.15;99590.19;4978517;28;20498;-82
2022/03/03 10:26:08;;;;;;;41.88;18.80;;;;;;;3.36;48.04;99579.25;4978490;28;20061;-85
2022/03/03 10:28:36;;;;;;;37.90;17.80;;;;;;;3.59;47.70;99584.31;4978357;28;20054;-84
2022/03/03 10:31:06;;;;;;;37.43;19.60;;;;;;;3.71;47.89;99587.28;4962066;28;20053;-85
2022/03/03 10:33:38;;;;;;;45.00;19.05;;;;;;;3.93;47.51;99577.38;4978483;28;20042;-84
2022/03/03 10:36:12;;;;;;;38.65;18.20;;;;;;;3.80;46.81;99571.84;4977857;28;20047;-85
2022/03/03 10:38:55;;;;;;;45.72;17.80;;;;;;;3.41;47.63;99572.81;4978245;28;20489;-84
2022/03/03 10:41:41;;;;;;;38.90;18.30;;;;;;;3.26;47.93;99572.66;4994613;28;20140;-84
2022/03/03 10:44:11;;;;;;;35.63;18.30;;;;;;;3.74;47.25;99566.84;4978260;28;20050;-85
2022/03/03 10:47:00;;;;;;;36.70;18.80;;;;;;;4.24;47.15;99570.56;4961892;28;20066;-85
2022/03/03 10:49:27;;;;;;;43.67;18.60;;;;;;;4.34;46.55;99562.09;4994575;28;20089;-84
2022/03/03 10:51:54;;;;;;;40.70;18.63;;;;;;;4.45;46.59;99563.34;4977986;28;20093;-83
2022/03/03 10:54:20;;;;;;;33.67;16.35;;;;;;;4.76;45.76;99565.22;4961777;28;20086;-86
2022/03/03 10:56:48;;;;;;;35.25;18.23;;;;;;;4.97;44.93;99556.16;4961772;28;20050;-83
2022/03/03 10:59:25;;;;;;;38.05;17.23;;;;;;;4.26;45.64;99555.47;4945713;28;20050;-79
2022/03/03 11:01:53;;;;;;;40.03;18.75;;;;;;;4.42;45.87;99553.75;4961477;28;20096;-82
2022/03/03 11:04:25;;;;;;;39.50;18.92;;;;;;;4.54;46.17;99553.09;4962939;28;20073;-86
2022/03/03 11:06:55;;;;;;;34.05;18.35;;;;;;;4.83;45.41;99553.38;4982558;28;20042;-89
2022/03/03 11:09:22;;;;;;;36.20;18.05;;;;;;;4.16;45.07;99538.34;4978833;28;20058;-83
2022/03/03 11:11:48;;;;;;;44.88;18.77;;;;;;;4.07;46.19;99553.75;4978496;28;20057;-87
2022/03/03 11:14:14;;;;;;;40.45;17.95;;;;;;;4.30;45.56;99528.78;4995841;28;20046;-88
2022/03/03 11:16:42;;;;;;;34.92;17.63;;;;;;;4.58;45.17;99538.78;4961873;28;20034;-87
2022/03/03 11:19:10;;;;;;;38.97;18.10;;;;;;;4.92;44.76;99537.00;4978042;28;20049;-87